sensor_id;sensor_type;location;lat;lon;timestamp;P1;durP1;ratioP1;P2;durP2;ratioP2
20531;SDS011;10424;52.102;8.084;2022-07-31T00:00:42;6.18;;;2.90;;
20531;SDS011;10424;52.102;8.084;2022-07-31T00:03:10;5.75;;;2.70;;
20531;SDS011;10424;52.102;8.084;2022-07-31T00:05:37;5.50;;;2.60;;
20531;SDS011;10424;52.102;8.084;2022-07-31T00:08:04;4.32;;;2.83;;
20531;SDS011;10424;52.102;8.084;2022-07-31T00:10:32;6.35;;;2.67;;
20531;SDS011;10424;52.102;8.084;2022-07-31T00:13:00;3.97;;;2.88;;
20531;SDS011;10424;52.102;8.084;2022-07-31T00:15:28;5.13;;;3.08;;
20531;SDS011;10424;52.102;8.084;2022-07-31T00:17:55;7.75;;;3.30;;
20531;SDS011;10424;52.102;8.084;2022-07-31T00:20:22;4.15;;;2.67;;
20531;SDS011;10424;52.102;8.084;2022-07-31T00:22:50;5.97;;;3.67;;
20531;SDS011;10424;52.102;8.084;2022-07-31T00:25:18;6.45;;;3.53;;
20531;SDS011;10424;52.102;8.084;2022-07-31T00:27:46;7.30;;;3.60;;
20531;SDS011;10424;52.102;8.084;2022-07-31T00:30:14;4.10;;;3.08;;
20531;SDS011;10424;52.102;8.084;2022-07-31T00:32:42;7.45;;;3.25;;
20531;SDS011;10424;52.102;8.084;2022-07-31T00:37:44;6.40;;;3.70;;
20531;SDS011;10424;52.102;8.084;2022-07-31T00:40:14;9.95;;;4.00;;
20531;SDS011;10424;52.102;8.084;2022-07-31T00:42:42;8.55;;;4.10;;
20531;SDS011;10424;52.102;8.084;2022-07-31T00:45:10;10.10;;;3.80;;
20531;SDS011;10424;52.102;8.084;2022-07-31T00:47:39;5.95;;;4.25;;
20531;SDS011;10424;52.102;8.084;2022-07-31T00:50:06;7.68;;;4.03;;
20531;SDS011;10424;52.102;8.084;2022-07-31T00:52:34;5.68;;;3.97;;
20531;SDS011;10424;52.102;8.084;2022-07-31T00:55:01;4.85;;;3.90;;
20531;SDS011;10424;52.102;8.084;2022-07-31T00:57:28;8.05;;;3.90;;
20531;SDS011;10424;52.102;8.084;2022-07-31T00:59:56;5.55;;;3.88;;
20531;SDS011;10424;52.102;8.084;2022-07-31T01:02:23;9.23;;;4.20;;
20531;SDS011;10424;52.102;8.084;2022-07-31T01:04:52;6.28;;;4.00;;
20531;SDS011;10424;52.102;8.084;2022-07-31T01:07:19;6.05;;;3.88;;
20531;SDS011;10424;52.102;8.084;2022-07-31T01:09:46;6.15;;;4.25;;
20531;SDS011;10424;52.102;8.084;2022-07-31T01:12:16;8.68;;;3.90;;
20531;SDS011;10424;52.102;8.084;2022-07-31T01:14:45;5.85;;;3.70;;
20531;SDS011;10424;52.102;8.084;2022-07-31T01:17:14;7.82;;;3.97;;
20531;SDS011;10424;52.102;8.084;2022-07-31T01:19:43;5.47;;;4.00;;
20531;SDS011;10424;52.102;8.084;2022-07-31T01:22:16;6.55;;;4.15;;
20531;SDS011;10424;52.102;8.084;2022-07-31T01:24:48;6.32;;;4.50;;
20531;SDS011;10424;52.102;8.084;2022-07-31T01:27:26;8.82;;;4.28;;
20531;SDS011;10424;52.102;8.084;2022-07-31T01:30:00;8.15;;;5.85;;
20531;SDS011;10424;52.102;8.084;2022-07-31T01:32:30;6.00;;;5.10;;
20531;SDS011;10424;52.102;8.084;2022-07-31T01:35:00;7.55;;;5.30;;
20531;SDS011;10424;52.102;8.084;2022-07-31T01:37:29;10.00;;;5.57;;
20531;SDS011;10424;52.102;8.084;2022-07-31T01:39:58;10.98;;;6.00;;
20531;SDS011;10424;52.102;8.084;2022-07-31T01:42:27;8.50;;;6.32;;
20531;SDS011;10424;52.102;8.084;2022-07-31T01:44:56;10.02;;;5.82;;
20531;SDS011;10424;52.102;8.084;2022-07-31T01:47:25;8.68;;;6.05;;
20531;SDS011;10424;52.102;8.084;2022-07-31T01:49:53;9.40;;;6.35;;
20531;SDS011;10424;52.102;8.084;2022-07-31T01:52:23;8.20;;;6.13;;
20531;SDS011;10424;52.102;8.084;2022-07-31T01:54:52;10.07;;;5.82;;
20531;SDS011;10424;52.102;8.084;2022-07-31T01:57:20;9.18;;;5.63;;
20531;SDS011;10424;52.102;8.084;2022-07-31T01:59:49;10.80;;;6.45;;
20531;SDS011;10424;52.102;8.084;2022-07-31T02:02:17;9.48;;;5.68;;
20531;SDS011;10424;52.102;8.084;2022-07-31T02:04:46;9.40;;;5.93;;
20531;SDS011;10424;52.102;8.084;2022-07-31T02:07:14;8.60;;;5.88;;
20531;SDS011;10424;52.102;8.084;2022-07-31T02:09:42;10.60;;;5.97;;
20531;SDS011;10424;52.102;8.084;2022-07-31T02:12:10;13.70;;;6.00;;
20531;SDS011;10424;52.102;8.084;2022-07-31T02:14:38;10.15;;;5.85;;
20531;SDS011;10424;52.102;8.084;2022-07-31T02:17:07;9.82;;;5.78;;
20531;SDS011;10424;52.102;8.084;2022-07-31T02:19:35;8.68;;;5.82;;
20531;SDS011;10424;52.102;8.084;2022-07-31T02:22:06;8.88;;;5.80;;
20531;SDS011;10424;52.102;8.084;2022-07-31T02:24:33;9.15;;;6.07;;
20531;SDS011;10424;52.102;8.084;2022-07-31T02:27:01;9.63;;;6.10;;
20531;SDS011;10424;52.102;8.084;2022-07-31T02:29:29;10.30;;;6.20;;
20531;SDS011;10424;52.102;8.084;2022-07-31T02:31:58;9.25;;;6.00;;
20531;SDS011;10424;52.102;8.084;2022-07-31T02:34:25;7.95;;;5.90;;
20531;SDS011;10424;52.102;8.084;2022-07-31T02:36:54;12.32;;;6.55;;
20531;SDS011;10424;52.102;8.084;2022-07-31T02:39:23;10.50;;;6.20;;
20531;SDS011;10424;52.102;8.084;2022-07-31T02:41:51;14.38;;;6.78;;
20531;SDS011;10424;52.102;8.084;2022-07-31T02:44:21;10.25;;;6.40;;
20531;SDS011;10424;52.102;8.084;2022-07-31T02:46:49;10.00;;;6.82;;
20531;SDS011;10424;52.102;8.084;2022-07-31T02:49:17;9.90;;;6.80;;
20531;SDS011;10424;52.102;8.084;2022-07-31T02:51:44;12.25;;;7.03;;
20531;SDS011;10424;52.102;8.084;2022-07-31T02:54:11;9.63;;;6.57;;
20531;SDS011;10424;52.102;8.084;2022-07-31T02:56:40;9.23;;;6.85;;
20531;SDS011;10424;52.102;8.084;2022-07-31T02:59:08;8.80;;;6.82;;
20531;SDS011;10424;52.102;8.084;2022-07-31T03:01:35;7.57;;;6.20;;
20531;SDS011;10424;52.102;8.084;2022-07-31T03:04:03;10.73;;;6.60;;
20531;SDS011;10424;52.102;8.084;2022-07-31T03:06:30;10.63;;;7.00;;
20531;SDS011;10424;52.102;8.084;2022-07-31T03:08:57;10.27;;;6.53;;
20531;SDS011;10424;52.102;8.084;2022-07-31T03:11:24;10.85;;;7.18;;
20531;SDS011;10424;52.102;8.084;2022-07-31T03:13:54;8.25;;;6.40;;
20531;SDS011;10424;52.102;8.084;2022-07-31T03:16:23;9.45;;;6.97;;
20531;SDS011;10424;52.102;8.084;2022-07-31T03:18:50;10.57;;;6.88;;
20531;SDS011;10424;52.102;8.084;2022-07-31T03:21:19;12.25;;;6.63;;
20531;SDS011;10424;52.102;8.084;2022-07-31T03:23:46;11.30;;;7.38;;
20531;SDS011;10424;52.102;8.084;2022-07-31T03:26:14;9.27;;;7.00;;
20531;SDS011;10424;52.102;8.084;2022-07-31T03:28:42;12.88;;;7.38;;
20531;SDS011;10424;52.102;8.084;2022-07-31T03:31:10;10.20;;;7.20;;
20531;SDS011;10424;52.102;8.084;2022-07-31T03:33:38;10.52;;;6.93;;
20531;SDS011;10424;52.102;8.084;2022-07-31T03:36:06;11.23;;;7.03;;
20531;SDS011;10424;52.102;8.084;2022-07-31T03:38:34;10.70;;;7.03;;
20531;SDS011;10424;52.102;8.084;2022-07-31T03:41:02;12.52;;;6.75;;
20531;SDS011;10424;52.102;8.084;2022-07-31T03:43:29;10.30;;;6.63;;
20531;SDS011;10424;52.102;8.084;2022-07-31T03:45:57;9.30;;;6.43;;
20531;SDS011;10424;52.102;8.084;2022-07-31T03:48:27;10.02;;;6.53;;
20531;SDS011;10424;52.102;8.084;2022-07-31T03:50:55;9.13;;;6.75;;
20531;SDS011;10424;52.102;8.084;2022-07-31T03:53:22;11.07;;;6.28;;
20531;SDS011;10424;52.102;8.084;2022-07-31T03:55:50;9.27;;;6.15;;
20531;SDS011;10424;52.102;8.084;2022-07-31T03:58:19;9.00;;;6.72;;
20531;SDS011;10424;52.102;8.084;2022-07-31T04:00:47;11.30;;;6.32;;
20531;SDS011;10424;52.102;8.084;2022-07-31T04:03:16;8.73;;;5.78;;
20531;SDS011;10424;52.102;8.084;2022-07-31T04:05:44;10.80;;;6.22;;
20531;SDS011;10424;52.102;8.084;2022-07-31T04:08:12;11.50;;;5.82;;
20531;SDS011;10424;52.102;8.084;2022-07-31T04:10:40;12.38;;;6.45;;
20531;SDS011;10424;52.102;8.084;2022-07-31T04:13:07;13.68;;;6.28;;
20531;SDS011;10424;52.102;8.084;2022-07-31T04:15:34;10.27;;;5.68;;
20531;SDS011;10424;52.102;8.084;2022-07-31T04:18:02;9.82;;;5.90;;
20531;SDS011;10424;52.102;8.084;2022-07-31T04:20:29;10.40;;;5.85;;
20531;SDS011;10424;52.102;8.084;2022-07-31T04:22:58;8.55;;;5.85;;
20531;SDS011;10424;52.102;8.084;2022-07-31T04:25:25;8.35;;;5.80;;
20531;SDS011;10424;52.102;8.084;2022-07-31T04:27:53;8.18;;;5.57;;
20531;SDS011;10424;52.102;8.084;2022-07-31T04:30:20;10.77;;;5.90;;
20531;SDS011;10424;52.102;8.084;2022-07-31T04:32:47;8.38;;;5.80;;
20531;SDS011;10424;52.102;8.084;2022-07-31T04:35:14;9.95;;;6.07;;
20531;SDS011;10424;52.102;8.084;2022-07-31T04:37:42;9.60;;;5.72;;
20531;SDS011;10424;52.102;8.084;2022-07-31T04:40:11;8.20;;;5.53;;
20531;SDS011;10424;52.102;8.084;2022-07-31T04:42:38;11.25;;;6.20;;
20531;SDS011;10424;52.102;8.084;2022-07-31T04:45:06;10.68;;;6.07;;
20531;SDS011;10424;52.102;8.084;2022-07-31T04:47:33;10.48;;;5.90;;
20531;SDS011;10424;52.102;8.084;2022-07-31T04:50:01;13.07;;;6.30;;
20531;SDS011;10424;52.102;8.084;2022-07-31T04:52:28;10.25;;;6.25;;
20531;SDS011;10424;52.102;8.084;2022-07-31T04:54:56;9.63;;;5.85;;
20531;SDS011;10424;52.102;8.084;2022-07-31T04:57:25;12.43;;;6.88;;
20531;SDS011;10424;52.102;8.084;2022-07-31T04:59:52;9.60;;;6.18;;
20531;SDS011;10424;52.102;8.084;2022-07-31T05:02:20;9.25;;;6.90;;
20531;SDS011;10424;52.102;8.084;2022-07-31T05:04:47;9.30;;;6.60;;
20531;SDS011;10424;52.102;8.084;2022-07-31T05:07:14;8.73;;;6.25;;
20531;SDS011;10424;52.102;8.084;2022-07-31T05:09:41;11.05;;;7.00;;
20531;SDS011;10424;52.102;8.084;2022-07-31T05:12:09;11.20;;;7.18;;
20531;SDS011;10424;52.102;8.084;2022-07-31T05:14:37;9.27;;;6.55;;
20531;SDS011;10424;52.102;8.084;2022-07-31T05:17:05;8.43;;;6.43;;
20531;SDS011;10424;52.102;8.084;2022-07-31T05:19:32;10.13;;;6.30;;
20531;SDS011;10424;52.102;8.084;2022-07-31T05:22:00;11.07;;;6.57;;
20531;SDS011;10424;52.102;8.084;2022-07-31T05:24:29;10.07;;;6.50;;
20531;SDS011;10424;52.102;8.084;2022-07-31T05:26:56;10.57;;;6.82;;
20531;SDS011;10424;52.102;8.084;2022-07-31T05:29:23;14.95;;;6.70;;
20531;SDS011;10424;52.102;8.084;2022-07-31T05:31:52;9.65;;;6.32;;
20531;SDS011;10424;52.102;8.084;2022-07-31T05:34:20;8.82;;;6.18;;
20531;SDS011;10424;52.102;8.084;2022-07-31T05:36:47;8.43;;;6.15;;
20531;SDS011;10424;52.102;8.084;2022-07-31T05:39:14;8.25;;;5.90;;
20531;SDS011;10424;52.102;8.084;2022-07-31T05:41:42;8.13;;;6.25;;
20531;SDS011;10424;52.102;8.084;2022-07-31T05:44:10;10.25;;;5.63;;
20531;SDS011;10424;52.102;8.084;2022-07-31T05:46:37;9.68;;;6.20;;
20531;SDS011;10424;52.102;8.084;2022-07-31T05:49:05;9.23;;;5.78;;
20531;SDS011;10424;52.102;8.084;2022-07-31T05:51:33;7.18;;;5.70;;
20531;SDS011;10424;52.102;8.084;2022-07-31T05:54:00;8.32;;;5.57;;
20531;SDS011;10424;52.102;8.084;2022-07-31T05:56:27;11.38;;;5.95;;
20531;SDS011;10424;52.102;8.084;2022-07-31T05:58:54;10.98;;;5.93;;
20531;SDS011;10424;52.102;8.084;2022-07-31T06:01:22;9.07;;;5.40;;
20531;SDS011;10424;52.102;8.084;2022-07-31T06:03:49;8.18;;;5.60;;
20531;SDS011;10424;52.102;8.084;2022-07-31T06:06:18;9.65;;;5.50;;
20531;SDS011;10424;52.102;8.084;2022-07-31T06:08:45;8.30;;;5.55;;
20531;SDS011;10424;52.102;8.084;2022-07-31T06:11:12;8.00;;;5.55;;
20531;SDS011;10424;52.102;8.084;2022-07-31T06:13:40;8.85;;;5.25;;
20531;SDS011;10424;52.102;8.084;2022-07-31T06:16:10;8.93;;;5.30;;
20531;SDS011;10424;52.102;8.084;2022-07-31T06:18:38;7.00;;;4.95;;
20531;SDS011;10424;52.102;8.084;2022-07-31T06:21:05;8.73;;;5.03;;
20531;SDS011;10424;52.102;8.084;2022-07-31T06:23:33;7.97;;;5.20;;
20531;SDS011;10424;52.102;8.084;2022-07-31T06:26:01;7.03;;;5.05;;
20531;SDS011;10424;52.102;8.084;2022-07-31T06:28:28;7.22;;;4.97;;
20531;SDS011;10424;52.102;8.084;2022-07-31T06:30:55;9.85;;;5.07;;
20531;SDS011;10424;52.102;8.084;2022-07-31T06:33:23;8.25;;;5.13;;
20531;SDS011;10424;52.102;8.084;2022-07-31T06:35:50;8.95;;;4.65;;
20531;SDS011;10424;52.102;8.084;2022-07-31T06:38:17;8.07;;;4.82;;
20531;SDS011;10424;52.102;8.084;2022-07-31T06:40:49;7.50;;;4.68;;
20531;SDS011;10424;52.102;8.084;2022-07-31T06:43:17;7.07;;;5.00;;
20531;SDS011;10424;52.102;8.084;2022-07-31T06:45:44;7.22;;;4.50;;
20531;SDS011;10424;52.102;8.084;2022-07-31T06:48:12;9.38;;;4.70;;
20531;SDS011;10424;52.102;8.084;2022-07-31T06:50:40;10.68;;;4.32;;
20531;SDS011;10424;52.102;8.084;2022-07-31T06:53:07;7.22;;;4.00;;
20531;SDS011;10424;52.102;8.084;2022-07-31T06:55:34;7.20;;;4.30;;
20531;SDS011;10424;52.102;8.084;2022-07-31T06:58:03;7.10;;;3.97;;
20531;SDS011;10424;52.102;8.084;2022-07-31T07:00:30;5.00;;;4.10;;
20531;SDS011;10424;52.102;8.084;2022-07-31T07:02:58;9.77;;;4.13;;
20531;SDS011;10424;52.102;8.084;2022-07-31T07:05:25;5.05;;;4.10;;
20531;SDS011;10424;52.102;8.084;2022-07-31T07:07:52;4.85;;;3.78;;
20531;SDS011;10424;52.102;8.084;2022-07-31T07:10:20;5.65;;;3.90;;
20531;SDS011;10424;52.102;8.084;2022-07-31T07:12:47;5.88;;;3.95;;
20531;SDS011;10424;52.102;8.084;2022-07-31T07:15:16;5.80;;;4.20;;
20531;SDS011;10424;52.102;8.084;2022-07-31T07:17:43;9.15;;;3.95;;
20531;SDS011;10424;52.102;8.084;2022-07-31T07:20:10;5.75;;;4.10;;
20531;SDS011;10424;52.102;8.084;2022-07-31T07:22:38;5.80;;;3.83;;
20531;SDS011;10424;52.102;8.084;2022-07-31T07:25:06;8.52;;;4.32;;
20531;SDS011;10424;52.102;8.084;2022-07-31T07:27:33;8.63;;;4.43;;
20531;SDS011;10424;52.102;8.084;2022-07-31T07:30:01;6.93;;;4.05;;
20531;SDS011;10424;52.102;8.084;2022-07-31T07:32:30;8.40;;;4.03;;
20531;SDS011;10424;52.102;8.084;2022-07-31T07:34:57;8.50;;;4.20;;
20531;SDS011;10424;52.102;8.084;2022-07-31T07:37:24;6.30;;;4.18;;
20531;SDS011;10424;52.102;8.084;2022-07-31T07:39:52;7.30;;;4.25;;
20531;SDS011;10424;52.102;8.084;2022-07-31T07:42:19;8.07;;;4.30;;
20531;SDS011;10424;52.102;8.084;2022-07-31T07:44:46;7.05;;;4.40;;
20531;SDS011;10424;52.102;8.084;2022-07-31T07:47:14;8.32;;;4.15;;
20531;SDS011;10424;52.102;8.084;2022-07-31T07:49:42;8.25;;;4.10;;
20531;SDS011;10424;52.102;8.084;2022-07-31T07:52:10;7.63;;;4.35;;
20531;SDS011;10424;52.102;8.084;2022-07-31T07:54:37;9.77;;;4.15;;
20531;SDS011;10424;52.102;8.084;2022-07-31T07:57:04;5.80;;;4.20;;
20531;SDS011;10424;52.102;8.084;2022-07-31T07:59:32;7.47;;;4.38;;
20531;SDS011;10424;52.102;8.084;2022-07-31T08:01:59;7.00;;;4.00;;
20531;SDS011;10424;52.102;8.084;2022-07-31T08:04:27;6.43;;;4.20;;
20531;SDS011;10424;52.102;8.084;2022-07-31T08:06:55;5.97;;;4.30;;
20531;SDS011;10424;52.102;8.084;2022-07-31T08:09:23;7.40;;;4.40;;
20531;SDS011;10424;52.102;8.084;2022-07-31T08:11:50;7.47;;;4.53;;
20531;SDS011;10424;52.102;8.084;2022-07-31T08:14:18;7.10;;;4.32;;
20531;SDS011;10424;52.102;8.084;2022-07-31T08:16:45;4.60;;;3.50;;
20531;SDS011;10424;52.102;8.084;2022-07-31T08:19:13;6.63;;;3.88;;
20531;SDS011;10424;52.102;8.084;2022-07-31T08:21:40;5.45;;;3.70;;
20531;SDS011;10424;52.102;8.084;2022-07-31T08:24:09;5.95;;;3.90;;
20531;SDS011;10424;52.102;8.084;2022-07-31T08:26:36;7.85;;;3.70;;
20531;SDS011;10424;52.102;8.084;2022-07-31T08:29:21;4.80;;;3.45;;
20531;SDS011;10424;52.102;8.084;2022-07-31T08:31:48;8.00;;;3.92;;
20531;SDS011;10424;52.102;8.084;2022-07-31T08:34:16;5.70;;;4.03;;
20531;SDS011;10424;52.102;8.084;2022-07-31T08:36:44;6.57;;;4.15;;
20531;SDS011;10424;52.102;8.084;2022-07-31T08:39:13;8.02;;;3.92;;
20531;SDS011;10424;52.102;8.084;2022-07-31T08:41:40;7.22;;;4.28;;
20531;SDS011;10424;52.102;8.084;2022-07-31T08:44:08;5.22;;;3.85;;
20531;SDS011;10424;52.102;8.084;2022-07-31T08:46:36;8.25;;;4.40;;
20531;SDS011;10424;52.102;8.084;2022-07-31T08:49:05;7.65;;;4.43;;
20531;SDS011;10424;52.102;8.084;2022-07-31T08:51:34;12.80;;;4.28;;
20531;SDS011;10424;52.102;8.084;2022-07-31T08:54:01;6.47;;;4.57;;
20531;SDS011;10424;52.102;8.084;2022-07-31T08:56:33;10.38;;;5.10;;
20531;SDS011;10424;52.102;8.084;2022-07-31T08:59:01;7.13;;;5.00;;
20531;SDS011;10424;52.102;8.084;2022-07-31T09:01:28;8.52;;;5.18;;
20531;SDS011;10424;52.102;8.084;2022-07-31T09:03:57;7.63;;;4.82;;
20531;SDS011;10424;52.102;8.084;2022-07-31T09:06:24;5.28;;;4.65;;
20531;SDS011;10424;52.102;8.084;2022-07-31T09:08:53;8.38;;;4.53;;
20531;SDS011;10424;52.102;8.084;2022-07-31T09:11:21;10.68;;;5.32;;
20531;SDS011;10424;52.102;8.084;2022-07-31T09:13:53;8.35;;;5.18;;
20531;SDS011;10424;52.102;8.084;2022-07-31T09:16:21;7.03;;;5.15;;
20531;SDS011;10424;52.102;8.084;2022-07-31T09:18:55;10.93;;;5.53;;
20531;SDS011;10424;52.102;8.084;2022-07-31T09:21:22;8.20;;;5.18;;
20531;SDS011;10424;52.102;8.084;2022-07-31T09:23:50;9.23;;;5.63;;
20531;SDS011;10424;52.102;8.084;2022-07-31T09:26:18;8.80;;;4.97;;
20531;SDS011;10424;52.102;8.084;2022-07-31T09:28:46;8.95;;;4.95;;
20531;SDS011;10424;52.102;8.084;2022-07-31T09:31:18;6.72;;;5.03;;
20531;SDS011;10424;52.102;8.084;2022-07-31T09:33:46;10.00;;;5.10;;
20531;SDS011;10424;52.102;8.084;2022-07-31T09:36:13;8.48;;;5.70;;
20531;SDS011;10424;52.102;8.084;2022-07-31T09:38:41;7.65;;;5.63;;
20531;SDS011;10424;52.102;8.084;2022-07-31T09:41:09;8.50;;;5.85;;
20531;SDS011;10424;52.102;8.084;2022-07-31T09:43:37;11.43;;;5.25;;
20531;SDS011;10424;52.102;8.084;2022-07-31T09:46:05;9.13;;;4.97;;
20531;SDS011;10424;52.102;8.084;2022-07-31T09:48:34;10.35;;;5.40;;
20531;SDS011;10424;52.102;8.084;2022-07-31T09:51:02;8.77;;;5.00;;
20531;SDS011;10424;52.102;8.084;2022-07-31T09:53:37;9.52;;;5.60;;
20531;SDS011;10424;52.102;8.084;2022-07-31T09:56:05;9.57;;;4.82;;
20531;SDS011;10424;52.102;8.084;2022-07-31T09:58:36;9.50;;;5.35;;
20531;SDS011;10424;52.102;8.084;2022-07-31T10:01:04;7.18;;;5.00;;
20531;SDS011;10424;52.102;8.084;2022-07-31T10:03:34;8.63;;;5.00;;
20531;SDS011;10424;52.102;8.084;2022-07-31T10:06:02;8.55;;;5.10;;
20531;SDS011;10424;52.102;8.084;2022-07-31T10:08:31;6.00;;;4.80;;
20531;SDS011;10424;52.102;8.084;2022-07-31T10:10:59;7.10;;;4.63;;
20531;SDS011;10424;52.102;8.084;2022-07-31T10:13:27;5.80;;;3.95;;
20531;SDS011;10424;52.102;8.084;2022-07-31T10:15:55;8.00;;;4.60;;
20531;SDS011;10424;52.102;8.084;2022-07-31T10:18:25;11.73;;;4.28;;
20531;SDS011;10424;52.102;8.084;2022-07-31T10:20:55;5.43;;;4.35;;
20531;SDS011;10424;52.102;8.084;2022-07-31T10:23:23;6.70;;;4.60;;
20531;SDS011;10424;52.102;8.084;2022-07-31T10:25:55;8.52;;;4.85;;
20531;SDS011;10424;52.102;8.084;2022-07-31T10:28:23;7.57;;;4.85;;
20531;SDS011;10424;52.102;8.084;2022-07-31T10:30:50;7.88;;;5.18;;
20531;SDS011;10424;52.102;8.084;2022-07-31T10:33:17;9.40;;;5.65;;
20531;SDS011;10424;52.102;8.084;2022-07-31T10:35:47;11.68;;;7.50;;
20531;SDS011;10424;52.102;8.084;2022-07-31T10:38:19;7.93;;;5.47;;
20531;SDS011;10424;52.102;8.084;2022-07-31T10:40:50;8.13;;;5.10;;
20531;SDS011;10424;52.102;8.084;2022-07-31T10:43:18;8.98;;;5.22;;
20531;SDS011;10424;52.102;8.084;2022-07-31T10:45:49;8.52;;;4.78;;
20531;SDS011;10424;52.102;8.084;2022-07-31T10:48:17;12.98;;;7.15;;
20531;SDS011;10424;52.102;8.084;2022-07-31T10:50:45;7.50;;;5.43;;
20531;SDS011;10424;52.102;8.084;2022-07-31T10:53:13;8.82;;;5.13;;
20531;SDS011;10424;52.102;8.084;2022-07-31T10:55:42;9.68;;;5.05;;
20531;SDS011;10424;52.102;8.084;2022-07-31T10:58:10;7.85;;;4.68;;
20531;SDS011;10424;52.102;8.084;2022-07-31T11:00:38;9.27;;;4.78;;
20531;SDS011;10424;52.102;8.084;2022-07-31T11:03:12;8.50;;;4.80;;
20531;SDS011;10424;52.102;8.084;2022-07-31T11:05:50;6.75;;;4.38;;
20531;SDS011;10424;52.102;8.084;2022-07-31T11:08:18;7.47;;;4.55;;
20531;SDS011;10424;52.102;8.084;2022-07-31T11:10:49;6.10;;;4.13;;
20531;SDS011;10424;52.102;8.084;2022-07-31T11:13:17;9.00;;;4.53;;
20531;SDS011;10424;52.102;8.084;2022-07-31T11:15:45;5.93;;;4.00;;
20531;SDS011;10424;52.102;8.084;2022-07-31T11:18:13;9.07;;;3.78;;
20531;SDS011;10424;52.102;8.084;2022-07-31T11:20:41;6.18;;;4.22;;
20531;SDS011;10424;52.102;8.084;2022-07-31T11:23:11;31.42;;;14.07;;
20531;SDS011;10424;52.102;8.084;2022-07-31T11:25:41;7.95;;;4.63;;
20531;SDS011;10424;52.102;8.084;2022-07-31T11:28:12;7.82;;;4.75;;
20531;SDS011;10424;52.102;8.084;2022-07-31T11:30:46;6.35;;;4.20;;
20531;SDS011;10424;52.102;8.084;2022-07-31T11:33:15;7.78;;;4.28;;
20531;SDS011;10424;52.102;8.084;2022-07-31T11:35:42;5.30;;;3.90;;
20531;SDS011;10424;52.102;8.084;2022-07-31T11:38:09;6.22;;;3.80;;
20531;SDS011;10424;52.102;8.084;2022-07-31T11:40:37;5.75;;;4.20;;
20531;SDS011;10424;52.102;8.084;2022-07-31T11:43:06;6.15;;;4.07;;
20531;SDS011;10424;52.102;8.084;2022-07-31T11:45:45;7.47;;;3.88;;
20531;SDS011;10424;52.102;8.084;2022-07-31T11:48:13;8.15;;;4.60;;
20531;SDS011;10424;52.102;8.084;2022-07-31T11:50:41;10.38;;;4.35;;
20531;SDS011;10424;52.102;8.084;2022-07-31T11:53:09;10.15;;;4.35;;
20531;SDS011;10424;52.102;8.084;2022-07-31T11:55:42;6.07;;;4.18;;
20531;SDS011;10424;52.102;8.084;2022-07-31T11:58:10;8.82;;;3.88;;
20531;SDS011;10424;52.102;8.084;2022-07-31T12:00:37;7.32;;;3.72;;
20531;SDS011;10424;52.102;8.084;2022-07-31T12:03:06;4.88;;;3.05;;
20531;SDS011;10424;52.102;8.084;2022-07-31T12:05:42;5.05;;;3.38;;
20531;SDS011;10424;52.102;8.084;2022-07-31T12:08:10;3.83;;;2.88;;
20531;SDS011;10424;52.102;8.084;2022-07-31T12:10:37;4.80;;;2.95;;
20531;SDS011;10424;52.102;8.084;2022-07-31T12:13:09;4.30;;;2.75;;
20531;SDS011;10424;52.102;8.084;2022-07-31T12:15:37;4.63;;;3.00;;
20531;SDS011;10424;52.102;8.084;2022-07-31T12:18:05;4.18;;;2.70;;
20531;SDS011;10424;52.102;8.084;2022-07-31T12:20:33;6.57;;;2.90;;
20531;SDS011;10424;52.102;8.084;2022-07-31T12:23:01;4.32;;;3.00;;
20531;SDS011;10424;52.102;8.084;2022-07-31T12:25:37;7.57;;;3.10;;
20531;SDS011;10424;52.102;8.084;2022-07-31T12:28:06;9.60;;;3.95;;
20531;SDS011;10424;52.102;8.084;2022-07-31T12:30:33;5.40;;;3.63;;
20531;SDS011;10424;52.102;8.084;2022-07-31T12:33:05;5.78;;;3.35;;
20531;SDS011;10424;52.102;8.084;2022-07-31T12:35:37;5.90;;;3.47;;
20531;SDS011;10424;52.102;8.084;2022-07-31T12:38:04;7.03;;;3.50;;
20531;SDS011;10424;52.102;8.084;2022-07-31T12:40:32;6.57;;;3.60;;
20531;SDS011;10424;52.102;8.084;2022-07-31T12:42:59;10.00;;;4.05;;
20531;SDS011;10424;52.102;8.084;2022-07-31T12:45:27;7.28;;;4.03;;
20531;SDS011;10424;52.102;8.084;2022-07-31T12:47:55;7.32;;;4.25;;
20531;SDS011;10424;52.102;8.084;2022-07-31T12:50:24;4.68;;;3.47;;
20531;SDS011;10424;52.102;8.084;2022-07-31T12:52:52;4.72;;;3.28;;
20531;SDS011;10424;52.102;8.084;2022-07-31T12:55:20;4.90;;;3.65;;
20531;SDS011;10424;52.102;8.084;2022-07-31T12:57:47;5.40;;;3.45;;
20531;SDS011;10424;52.102;8.084;2022-07-31T13:00:15;7.75;;;3.58;;
20531;SDS011;10424;52.102;8.084;2022-07-31T13:02:43;6.97;;;3.85;;
20531;SDS011;10424;52.102;8.084;2022-07-31T13:05:10;4.85;;;3.28;;
20531;SDS011;10424;52.102;8.084;2022-07-31T13:07:40;4.72;;;3.38;;
20531;SDS011;10424;52.102;8.084;2022-07-31T13:10:08;5.18;;;3.13;;
20531;SDS011;10424;52.102;8.084;2022-07-31T13:12:35;5.72;;;3.25;;
20531;SDS011;10424;52.102;8.084;2022-07-31T13:15:02;3.42;;;2.70;;
20531;SDS011;10424;52.102;8.084;2022-07-31T13:17:30;5.15;;;2.90;;
20531;SDS011;10424;52.102;8.084;2022-07-31T13:19:57;6.88;;;3.10;;
20531;SDS011;10424;52.102;8.084;2022-07-31T13:22:24;5.13;;;3.50;;
20531;SDS011;10424;52.102;8.084;2022-07-31T13:24:53;5.55;;;3.22;;
20531;SDS011;10424;52.102;8.084;2022-07-31T13:27:20;5.30;;;3.28;;
20531;SDS011;10424;52.102;8.084;2022-07-31T13:29:48;6.32;;;3.80;;
20531;SDS011;10424;52.102;8.084;2022-07-31T13:32:15;5.47;;;4.03;;
20531;SDS011;10424;52.102;8.084;2022-07-31T13:34:42;5.88;;;4.20;;
20531;SDS011;10424;52.102;8.084;2022-07-31T13:37:10;4.95;;;3.90;;
20531;SDS011;10424;52.102;8.084;2022-07-31T13:39:37;7.57;;;4.55;;
20531;SDS011;10424;52.102;8.084;2022-07-31T13:42:06;6.13;;;5.25;;
20531;SDS011;10424;52.102;8.084;2022-07-31T13:44:33;8.95;;;5.03;;
20531;SDS011;10424;52.102;8.084;2022-07-31T13:47:00;7.95;;;4.95;;
20531;SDS011;10424;52.102;8.084;2022-07-31T13:49:28;5.80;;;3.88;;
20531;SDS011;10424;52.102;8.084;2022-07-31T13:51:57;5.50;;;4.25;;
20531;SDS011;10424;52.102;8.084;2022-07-31T13:54:25;8.82;;;5.05;;
20531;SDS011;10424;52.102;8.084;2022-07-31T13:56:52;7.80;;;4.57;;
20531;SDS011;10424;52.102;8.084;2022-07-31T13:59:21;8.02;;;4.88;;
20531;SDS011;10424;52.102;8.084;2022-07-31T14:01:48;5.00;;;4.22;;
20531;SDS011;10424;52.102;8.084;2022-07-31T14:04:17;6.43;;;4.70;;
20531;SDS011;10424;52.102;8.084;2022-07-31T14:06:44;6.93;;;5.18;;
20531;SDS011;10424;52.102;8.084;2022-07-31T14:09:12;8.05;;;5.35;;
20531;SDS011;10424;52.102;8.084;2022-07-31T14:11:39;8.57;;;6.40;;
20531;SDS011;10424;52.102;8.084;2022-07-31T14:14:07;7.28;;;5.78;;
20531;SDS011;10424;52.102;8.084;2022-07-31T14:16:36;7.80;;;5.45;;
20531;SDS011;10424;52.102;8.084;2022-07-31T14:19:03;7.93;;;5.95;;
20531;SDS011;10424;52.102;8.084;2022-07-31T14:21:30;8.32;;;5.90;;
20531;SDS011;10424;52.102;8.084;2022-07-31T14:23:58;10.60;;;6.55;;
20531;SDS011;10424;52.102;8.084;2022-07-31T14:26:25;7.75;;;6.05;;
20531;SDS011;10424;52.102;8.084;2022-07-31T14:28:52;7.93;;;6.50;;
20531;SDS011;10424;52.102;8.084;2022-07-31T14:31:20;7.60;;;5.70;;
20531;SDS011;10424;52.102;8.084;2022-07-31T14:33:48;10.73;;;6.32;;
20531;SDS011;10424;52.102;8.084;2022-07-31T14:36:16;8.85;;;6.10;;
20531;SDS011;10424;52.102;8.084;2022-07-31T14:38:43;11.50;;;7.82;;
20531;SDS011;10424;52.102;8.084;2022-07-31T14:41:10;8.88;;;7.10;;
20531;SDS011;10424;52.102;8.084;2022-07-31T14:43:38;9.77;;;7.20;;
20531;SDS011;10424;52.102;8.084;2022-07-31T14:46:05;10.23;;;7.55;;
20531;SDS011;10424;52.102;8.084;2022-07-31T14:48:32;9.35;;;6.90;;
20531;SDS011;10424;52.102;8.084;2022-07-31T14:51:01;12.57;;;7.07;;
20531;SDS011;10424;52.102;8.084;2022-07-31T14:53:28;8.65;;;7.65;;